sensor_id;sensor_type;location;lat;lon;timestamp;P1;durP1;ratioP1;P2;durP2;ratioP2
18302;SDS011;9277;37.980;23.748;2023-11-21T00:00:13;1.70;;;1.60;;
18302;SDS011;9277;37.980;23.748;2023-11-21T00:02:40;3.17;;;2.00;;
18302;SDS011;9277;37.980;23.748;2023-11-21T00:05:07;2.55;;;2.13;;
18302;SDS011;9277;37.980;23.748;2023-11-21T00:07:35;2.45;;;1.80;;
18302;SDS011;9277;37.980;23.748;2023-11-21T00:10:03;2.63;;;2.00;;
18302;SDS011;9277;37.980;23.748;2023-11-21T00:12:31;2.00;;;1.80;;
18302;SDS011;9277;37.980;23.748;2023-11-21T00:14:58;1.90;;;1.80;;
18302;SDS011;9277;37.980;23.748;2023-11-21T00:17:25;3.85;;;2.30;;
18302;SDS011;9277;37.980;23.748;2023-11-21T00:19:52;1.77;;;1.60;;
18302;SDS011;9277;37.980;23.748;2023-11-21T00:22:19;1.75;;;1.65;;
18302;SDS011;9277;37.980;23.748;2023-11-21T00:24:46;2.80;;;1.75;;
18302;SDS011;9277;37.980;23.748;2023-11-21T00:27:14;3.03;;;1.80;;
18302;SDS011;9277;37.980;23.748;2023-11-21T00:29:40;2.60;;;1.80;;
18302;SDS011;9277;37.980;23.748;2023-11-21T00:32:07;2.33;;;1.80;;
18302;SDS011;9277;37.980;23.748;2023-11-21T00:34:34;1.73;;;1.63;;
18302;SDS011;9277;37.980;23.748;2023-11-21T00:37:01;1.90;;;1.70;;
18302;SDS011;9277;37.980;23.748;2023-11-21T00:39:28;2.78;;;1.88;;
18302;SDS011;9277;37.980;23.748;2023-11-21T00:41:55;2.05;;;1.85;;
18302;SDS011;9277;37.980;23.748;2023-11-21T00:44:23;1.83;;;1.70;;
18302;SDS011;9277;37.980;23.748;2023-11-21T00:46:50;2.95;;;1.88;;
18302;SDS011;9277;37.980;23.748;2023-11-21T00:49:17;2.85;;;1.70;;
18302;SDS011;9277;37.980;23.748;2023-11-21T00:51:43;1.83;;;1.60;;
18302;SDS011;9277;37.980;23.748;2023-11-21T00:54:10;2.10;;;1.58;;
18302;SDS011;9277;37.980;23.748;2023-11-21T00:56:37;2.08;;;1.77;;
18302;SDS011;9277;37.980;23.748;2023-11-21T00:59:05;1.67;;;1.58;;
18302;SDS011;9277;37.980;23.748;2023-11-21T01:01:33;2.03;;;1.77;;
18302;SDS011;9277;37.980;23.748;2023-11-21T01:04:00;1.95;;;1.75;;
18302;SDS011;9277;37.980;23.748;2023-11-21T01:06:28;3.17;;;1.70;;
18302;SDS011;9277;37.980;23.748;2023-11-21T01:08:55;2.55;;;1.80;;
18302;SDS011;9277;37.980;23.748;2023-11-21T01:11:22;1.95;;;1.83;;
18302;SDS011;9277;37.980;23.748;2023-11-21T01:13:48;3.80;;;1.73;;
18302;SDS011;9277;37.980;23.748;2023-11-21T01:16:15;1.90;;;1.80;;
18302;SDS011;9277;37.980;23.748;2023-11-21T01:18:44;7.80;;;2.05;;
18302;SDS011;9277;37.980;23.748;2023-11-21T01:21:10;4.18;;;1.90;;
18302;SDS011;9277;37.980;23.748;2023-11-21T01:23:37;1.50;;;1.40;;
18302;SDS011;9277;37.980;23.748;2023-11-21T01:26:04;2.83;;;1.60;;
18302;SDS011;9277;37.980;23.748;2023-11-21T01:28:32;2.42;;;1.90;;
18302;SDS011;9277;37.980;23.748;2023-11-21T01:30:59;2.20;;;1.80;;
18302;SDS011;9277;37.980;23.748;2023-11-21T01:33:26;1.95;;;1.85;;
18302;SDS011;9277;37.980;23.748;2023-11-21T01:35:54;1.98;;;1.77;;
18302;SDS011;9277;37.980;23.748;2023-11-21T01:38:21;2.72;;;2.08;;
18302;SDS011;9277;37.980;23.748;2023-11-21T01:40:48;3.53;;;2.22;;
18302;SDS011;9277;37.980;23.748;2023-11-21T01:43:15;2.20;;;2.00;;
18302;SDS011;9277;37.980;23.748;2023-11-21T01:45:42;2.50;;;1.92;;
18302;SDS011;9277;37.980;23.748;2023-11-21T01:48:10;4.63;;;2.28;;
18302;SDS011;9277;37.980;23.748;2023-11-21T01:50:37;4.20;;;2.42;;
18302;SDS011;9277;37.980;23.748;2023-11-21T01:53:06;2.55;;;2.35;;
18302;SDS011;9277;37.980;23.748;2023-11-21T01:55:33;4.80;;;2.45;;
18302;SDS011;9277;37.980;23.748;2023-11-21T01:58:00;2.28;;;2.08;;
18302;SDS011;9277;37.980;23.748;2023-11-21T02:00:27;3.10;;;2.30;;
18302;SDS011;9277;37.980;23.748;2023-11-21T02:02:56;3.28;;;2.10;;
18302;SDS011;9277;37.980;23.748;2023-11-21T02:05:24;1.90;;;1.80;;
18302;SDS011;9277;37.980;23.748;2023-11-21T02:07:51;3.35;;;2.20;;
18302;SDS011;9277;37.980;23.748;2023-11-21T02:10:19;5.32;;;1.75;;
18302;SDS011;9277;37.980;23.748;2023-11-21T02:12:48;2.03;;;1.65;;
18302;SDS011;9277;37.980;23.748;2023-11-21T02:15:15;4.35;;;1.90;;
18302;SDS011;9277;37.980;23.748;2023-11-21T02:17:45;1.55;;;1.45;;
18302;SDS011;9277;37.980;23.748;2023-11-21T02:20:12;2.20;;;1.63;;
18302;SDS011;9277;37.980;23.748;2023-11-21T02:22:40;5.40;;;1.58;;
18302;SDS011;9277;37.980;23.748;2023-11-21T02:25:09;2.63;;;1.77;;
18302;SDS011;9277;37.980;23.748;2023-11-21T02:27:36;2.22;;;1.60;;
18302;SDS011;9277;37.980;23.748;2023-11-21T02:30:03;2.03;;;1.80;;
18302;SDS011;9277;37.980;23.748;2023-11-21T02:32:32;3.47;;;1.83;;
18302;SDS011;9277;37.980;23.748;2023-11-21T02:34:59;2.10;;;1.50;;
18302;SDS011;9277;37.980;23.748;2023-11-21T02:37:28;1.58;;;1.48;;
18302;SDS011;9277;37.980;23.748;2023-11-21T02:39:55;2.88;;;1.83;;
18302;SDS011;9277;37.980;23.748;2023-11-21T02:42:23;3.47;;;1.90;;
18302;SDS011;9277;37.980;23.748;2023-11-21T02:44:50;1.83;;;1.63;;
18302;SDS011;9277;37.980;23.748;2023-11-21T02:47:17;2.60;;;1.73;;
18302;SDS011;9277;37.980;23.748;2023-11-21T02:49:44;4.57;;;1.65;;
18302;SDS011;9277;37.980;23.748;2023-11-21T02:52:11;4.43;;;1.90;;
18302;SDS011;9277;37.980;23.748;2023-11-21T02:54:37;2.65;;;1.70;;
18302;SDS011;9277;37.980;23.748;2023-11-21T02:57:04;1.73;;;1.60;;
18302;SDS011;9277;37.980;23.748;2023-11-21T02:59:34;3.15;;;1.90;;
18302;SDS011;9277;37.980;23.748;2023-11-21T03:02:01;2.00;;;1.80;;
18302;SDS011;9277;37.980;23.748;2023-11-21T03:04:28;2.10;;;1.63;;
18302;SDS011;9277;37.980;23.748;2023-11-21T03:06:57;8.23;;;1.73;;
18302;SDS011;9277;37.980;23.748;2023-11-21T03:09:24;5.10;;;1.80;;
18302;SDS011;9277;37.980;23.748;2023-11-21T03:11:51;3.30;;;2.28;;
18302;SDS011;9277;37.980;23.748;2023-11-21T03:14:18;2.40;;;2.20;;
18302;SDS011;9277;37.980;23.748;2023-11-21T03:16:47;2.33;;;1.83;;
18302;SDS011;9277;37.980;23.748;2023-11-21T03:19:14;4.38;;;1.80;;
18302;SDS011;9277;37.980;23.748;2023-11-21T03:21:41;2.42;;;1.80;;
18302;SDS011;9277;37.980;23.748;2023-11-21T03:24:08;4.22;;;1.95;;
18302;SDS011;9277;37.980;23.748;2023-11-21T03:26:35;2.17;;;1.90;;
18302;SDS011;9277;37.980;23.748;2023-11-21T03:29:03;2.00;;;1.90;;
18302;SDS011;9277;37.980;23.748;2023-11-21T03:31:30;2.92;;;2.28;;
18302;SDS011;9277;37.980;23.748;2023-11-21T03:33:59;8.27;;;2.33;;
18302;SDS011;9277;37.980;23.748;2023-11-21T03:36:26;3.83;;;1.70;;
18302;SDS011;9277;37.980;23.748;2023-11-21T03:38:53;5.07;;;2.40;;
18302;SDS011;9277;37.980;23.748;2023-11-21T03:41:20;2.03;;;1.85;;
18302;SDS011;9277;37.980;23.748;2023-11-21T03:43:47;5.95;;;2.40;;
18302;SDS011;9277;37.980;23.748;2023-11-21T03:46:14;1.83;;;1.73;;
18302;SDS011;9277;37.980;23.748;2023-11-21T03:48:41;2.63;;;1.90;;
18302;SDS011;9277;37.980;23.748;2023-11-21T03:51:10;6.15;;;2.10;;
18302;SDS011;9277;37.980;23.748;2023-11-21T03:53:36;5.68;;;1.92;;
18302;SDS011;9277;37.980;23.748;2023-11-21T03:56:03;3.38;;;2.03;;
18302;SDS011;9277;37.980;23.748;2023-11-21T03:58:30;2.40;;;2.00;;
18302;SDS011;9277;37.980;23.748;2023-11-21T04:00:57;1.92;;;1.80;;
18302;SDS011;9277;37.980;23.748;2023-11-21T04:03:24;2.75;;;1.80;;
18302;SDS011;9277;37.980;23.748;2023-11-21T04:05:51;2.35;;;1.60;;
18302;SDS011;9277;37.980;23.748;2023-11-21T04:08:19;4.78;;;2.03;;
18302;SDS011;9277;37.980;23.748;2023-11-21T04:10:46;3.45;;;1.80;;
18302;SDS011;9277;37.980;23.748;2023-11-21T04:13:13;1.98;;;1.88;;
18302;SDS011;9277;37.980;23.748;2023-11-21T04:15:40;2.00;;;1.90;;
18302;SDS011;9277;37.980;23.748;2023-11-21T04:18:07;2.15;;;1.92;;
18302;SDS011;9277;37.980;23.748;2023-11-21T04:20:34;2.28;;;1.77;;
18302;SDS011;9277;37.980;23.748;2023-11-21T04:23:01;6.97;;;1.90;;
18302;SDS011;9277;37.980;23.748;2023-11-21T04:25:30;2.17;;;2.00;;
18302;SDS011;9277;37.980;23.748;2023-11-21T04:27:57;4.35;;;2.00;;
18302;SDS011;9277;37.980;23.748;2023-11-21T04:30:23;2.50;;;1.90;;
18302;SDS011;9277;37.980;23.748;2023-11-21T04:32:51;4.47;;;2.15;;
18302;SDS011;9277;37.980;23.748;2023-11-21T04:35:19;3.08;;;1.80;;
18302;SDS011;9277;37.980;23.748;2023-11-21T04:37:47;6.90;;;1.92;;
18302;SDS011;9277;37.980;23.748;2023-11-21T04:40:14;2.70;;;1.80;;
18302;SDS011;9277;37.980;23.748;2023-11-21T04:42:42;1.60;;;1.50;;
18302;SDS011;9277;37.980;23.748;2023-11-21T04:45:09;1.70;;;1.58;;
18302;SDS011;9277;37.980;23.748;2023-11-21T04:47:37;1.98;;;1.77;;
18302;SDS011;9277;37.980;23.748;2023-11-21T04:50:04;9.30;;;2.45;;
18302;SDS011;9277;37.980;23.748;2023-11-21T04:52:31;5.85;;;1.85;;
18302;SDS011;9277;37.980;23.748;2023-11-21T04:54:59;6.25;;;2.10;;
18302;SDS011;9277;37.980;23.748;2023-11-21T04:57:27;2.28;;;1.80;;
18302;SDS011;9277;37.980;23.748;2023-11-21T04:59:55;5.45;;;1.75;;
18302;SDS011;9277;37.980;23.748;2023-11-21T05:02:22;2.35;;;1.80;;
18302;SDS011;9277;37.980;23.748;2023-11-21T05:04:49;2.85;;;2.50;;
18302;SDS011;9277;37.980;23.748;2023-11-21T05:07:16;3.40;;;1.73;;
18302;SDS011;9277;37.980;23.748;2023-11-21T05:09:43;2.13;;;1.92;;
18302;SDS011;9277;37.980;23.748;2023-11-21T05:12:11;11.15;;;2.17;;
18302;SDS011;9277;37.980;23.748;2023-11-21T05:14:38;2.95;;;2.28;;
18302;SDS011;9277;37.980;23.748;2023-11-21T05:17:06;3.15;;;2.20;;
18302;SDS011;9277;37.980;23.748;2023-11-21T05:19:33;3.83;;;2.40;;
18302;SDS011;9277;37.980;23.748;2023-11-21T05:22:01;3.38;;;2.05;;
18302;SDS011;9277;37.980;23.748;2023-11-21T05:24:28;3.92;;;2.30;;
18302;SDS011;9277;37.980;23.748;2023-11-21T05:26:55;4.55;;;2.50;;
18302;SDS011;9277;37.980;23.748;2023-11-21T05:29:23;6.32;;;2.40;;
18302;SDS011;9277;37.980;23.748;2023-11-21T05:31:50;8.00;;;2.78;;
18302;SDS011;9277;37.980;23.748;2023-11-21T05:34:19;6.05;;;2.63;;
18302;SDS011;9277;37.980;23.748;2023-11-21T05:36:49;3.38;;;2.55;;
18302;SDS011;9277;37.980;23.748;2023-11-21T05:39:16;5.80;;;3.17;;
18302;SDS011;9277;37.980;23.748;2023-11-21T05:41:44;3.58;;;2.80;;
18302;SDS011;9277;37.980;23.748;2023-11-21T05:44:11;4.43;;;2.95;;
18302;SDS011;9277;37.980;23.748;2023-11-21T05:46:39;5.40;;;3.05;;
18302;SDS011;9277;37.980;23.748;2023-11-21T05:49:08;5.00;;;2.58;;
18302;SDS011;9277;37.980;23.748;2023-11-21T05:51:36;10.02;;;2.58;;
18302;SDS011;9277;37.980;23.748;2023-11-21T05:54:03;3.30;;;2.83;;
18302;SDS011;9277;37.980;23.748;2023-11-21T05:56:30;6.07;;;2.80;;
18302;SDS011;9277;37.980;23.748;2023-11-21T05:58:57;8.13;;;2.92;;
18302;SDS011;9277;37.980;23.748;2023-11-21T06:01:24;4.68;;;2.97;;
18302;SDS011;9277;37.980;23.748;2023-11-21T06:03:53;7.97;;;3.03;;
18302;SDS011;9277;37.980;23.748;2023-11-21T06:06:20;3.55;;;2.38;;
18302;SDS011;9277;37.980;23.748;2023-11-21T06:08:49;4.82;;;2.88;;
18302;SDS011;9277;37.980;23.748;2023-11-21T06:11:15;8.35;;;2.90;;
18302;SDS011;9277;37.980;23.748;2023-11-21T06:13:42;5.38;;;2.95;;
18302;SDS011;9277;37.980;23.748;2023-11-21T06:16:09;4.35;;;2.85;;
18302;SDS011;9277;37.980;23.748;2023-11-21T06:18:38;9.32;;;3.00;;
18302;SDS011;9277;37.980;23.748;2023-11-21T06:21:05;7.93;;;3.50;;
18302;SDS011;9277;37.980;23.748;2023-11-21T06:23:32;5.93;;;2.85;;
18302;SDS011;9277;37.980;23.748;2023-11-21T06:26:00;5.65;;;3.55;;
18302;SDS011;9277;37.980;23.748;2023-11-21T06:28:27;4.93;;;3.13;;
18302;SDS011;9277;37.980;23.748;2023-11-21T06:30:54;18.48;;;4.53;;
18302;SDS011;9277;37.980;23.748;2023-11-21T06:33:21;10.73;;;3.63;;
18302;SDS011;9277;37.980;23.748;2023-11-21T06:35:48;9.68;;;4.03;;
18302;SDS011;9277;37.980;23.748;2023-11-21T06:38:15;16.45;;;4.25;;
18302;SDS011;9277;37.980;23.748;2023-11-21T06:40:42;13.30;;;4.43;;
18302;SDS011;9277;37.980;23.748;2023-11-21T06:43:11;9.77;;;4.53;;
18302;SDS011;9277;37.980;23.748;2023-11-21T06:45:39;7.45;;;4.07;;
18302;SDS011;9277;37.980;23.748;2023-11-21T06:48:06;12.65;;;5.00;;
18302;SDS011;9277;37.980;23.748;2023-11-21T06:50:33;16.60;;;4.40;;
18302;SDS011;9277;37.980;23.748;2023-11-21T06:53:00;10.27;;;4.45;;
18302;SDS011;9277;37.980;23.748;2023-11-21T06:55:29;16.05;;;4.75;;
18302;SDS011;9277;37.980;23.748;2023-11-21T06:57:58;15.88;;;4.32;;
18302;SDS011;9277;37.980;23.748;2023-11-21T07:00:27;19.40;;;4.60;;
18302;SDS011;9277;37.980;23.748;2023-11-21T07:02:54;11.07;;;4.55;;
18302;SDS011;9277;37.980;23.748;2023-11-21T07:05:21;10.45;;;4.07;;
18302;SDS011;9277;37.980;23.748;2023-11-21T07:07:49;11.45;;;4.07;;
18302;SDS011;9277;37.980;23.748;2023-11-21T07:10:18;8.95;;;3.95;;
18302;SDS011;9277;37.980;23.748;2023-11-21T07:12:44;10.40;;;4.28;;
18302;SDS011;9277;37.980;23.748;2023-11-21T07:15:11;10.95;;;4.05;;
18302;SDS011;9277;37.980;23.748;2023-11-21T07:17:39;9.00;;;3.15;;
18302;SDS011;9277;37.980;23.748;2023-11-21T07:20:07;4.10;;;3.25;;
18302;SDS011;9277;37.980;23.748;2023-11-21T07:22:34;5.78;;;3.00;;
18302;SDS011;9277;37.980;23.748;2023-11-21T07:25:00;5.60;;;3.08;;
18302;SDS011;9277;37.980;23.748;2023-11-21T07:27:27;5.35;;;3.17;;
18302;SDS011;9277;37.980;23.748;2023-11-21T07:29:54;9.52;;;3.78;;
18302;SDS011;9277;37.980;23.748;2023-11-21T07:32:21;12.13;;;3.10;;
18302;SDS011;9277;37.980;23.748;2023-11-21T07:34:49;9.48;;;2.83;;
18302;SDS011;9277;37.980;23.748;2023-11-21T07:37:16;5.70;;;2.95;;
18302;SDS011;9277;37.980;23.748;2023-11-21T07:39:42;4.15;;;2.80;;
18302;SDS011;9277;37.980;23.748;2023-11-21T07:42:09;3.83;;;2.55;;
18302;SDS011;9277;37.980;23.748;2023-11-21T07:44:37;7.55;;;2.78;;
18302;SDS011;9277;37.980;23.748;2023-11-21T07:47:03;4.30;;;2.45;;
18302;SDS011;9277;37.980;23.748;2023-11-21T07:49:30;4.68;;;2.80;;
18302;SDS011;9277;37.980;23.748;2023-11-21T07:51:59;5.60;;;3.35;;
18302;SDS011;9277;37.980;23.748;2023-11-21T07:54:25;3.92;;;2.60;;
18302;SDS011;9277;37.980;23.748;2023-11-21T07:56:53;4.78;;;2.85;;
18302;SDS011;9277;37.980;23.748;2023-11-21T07:59:19;3.55;;;2.70;;
18302;SDS011;9277;37.980;23.748;2023-11-21T08:01:46;11.38;;;3.08;;
18302;SDS011;9277;37.980;23.748;2023-11-21T08:04:13;6.28;;;3.22;;
18302;SDS011;9277;37.980;23.748;2023-11-21T08:06:40;8.23;;;3.83;;
18302;SDS011;9277;37.980;23.748;2023-11-21T08:09:09;8.63;;;3.97;;
18302;SDS011;9277;37.980;23.748;2023-11-21T08:11:37;9.00;;;3.90;;
18302;SDS011;9277;37.980;23.748;2023-11-21T08:14:04;8.52;;;3.60;;
18302;SDS011;9277;37.980;23.748;2023-11-21T08:16:31;5.53;;;3.75;;
18302;SDS011;9277;37.980;23.748;2023-11-21T08:18:58;4.97;;;3.50;;
18302;SDS011;9277;37.980;23.748;2023-11-21T08:21:25;9.82;;;3.80;;
18302;SDS011;9277;37.980;23.748;2023-11-21T08:23:54;13.15;;;3.30;;
18302;SDS011;9277;37.980;23.748;2023-11-21T08:26:22;7.13;;;3.85;;
18302;SDS011;9277;37.980;23.748;2023-11-21T08:28:49;7.63;;;3.28;;
18302;SDS011;9277;37.980;23.748;2023-11-21T08:31:22;10.85;;;3.67;;
18302;SDS011;9277;37.980;23.748;2023-11-21T08:33:49;8.25;;;3.20;;
18302;SDS011;9277;37.980;23.748;2023-11-21T08:36:16;7.10;;;3.08;;
18302;SDS011;9277;37.980;23.748;2023-11-21T08:38:43;5.28;;;2.60;;
18302;SDS011;9277;37.980;23.748;2023-11-21T08:41:10;4.70;;;2.47;;
18302;SDS011;9277;37.980;23.748;2023-11-21T08:43:38;5.78;;;2.40;;
18302;SDS011;9277;37.980;23.748;2023-11-21T08:46:05;4.55;;;2.35;;
18302;SDS011;9277;37.980;23.748;2023-11-21T08:48:34;3.42;;;2.22;;
18302;SDS011;9277;37.980;23.748;2023-11-21T08:51:01;2.95;;;2.15;;
18302;SDS011;9277;37.980;23.748;2023-11-21T08:53:29;3.10;;;1.90;;
18302;SDS011;9277;37.980;23.748;2023-11-21T08:55:56;3.67;;;2.33;;
18302;SDS011;9277;37.980;23.748;2023-11-21T08:58:23;2.95;;;1.90;;
18302;SDS011;9277;37.980;23.748;2023-11-21T09:00:51;6.97;;;3.05;;
18302;SDS011;9277;37.980;23.748;2023-11-21T09:03:18;3.90;;;2.40;;
18302;SDS011;9277;37.980;23.748;2023-11-21T09:05:45;4.07;;;2.00;;
18302;SDS011;9277;37.980;23.748;2023-11-21T09:08:11;4.80;;;2.60;;
18302;SDS011;9277;37.980;23.748;2023-11-21T09:10:38;4.50;;;2.88;;
18302;SDS011;9277;37.980;23.748;2023-11-21T09:13:07;7.82;;;2.30;;
18302;SDS011;9277;37.980;23.748;2023-11-21T09:15:35;3.00;;;1.88;;
18302;SDS011;9277;37.980;23.748;2023-11-21T09:18:03;3.95;;;2.38;;
18302;SDS011;9277;37.980;23.748;2023-11-21T09:20:30;5.80;;;2.80;;
18302;SDS011;9277;37.980;23.748;2023-11-21T09:22:57;3.58;;;2.67;;
18302;SDS011;9277;37.980;23.748;2023-11-21T09:25:24;7.78;;;2.80;;
18302;SDS011;9277;37.980;23.748;2023-11-21T09:27:51;6.05;;;2.50;;
18302;SDS011;9277;37.980;23.748;2023-11-21T09:30:18;8.02;;;2.70;;
18302;SDS011;9277;37.980;23.748;2023-11-21T09:32:45;6.32;;;3.13;;
18302;SDS011;9277;37.980;23.748;2023-11-21T09:35:14;4.43;;;2.78;;
18302;SDS011;9277;37.980;23.748;2023-11-21T09:37:43;5.15;;;2.60;;
18302;SDS011;9277;37.980;23.748;2023-11-21T09:40:10;4.22;;;2.25;;
18302;SDS011;9277;37.980;23.748;2023-11-21T09:42:39;6.90;;;2.40;;
18302;SDS011;9277;37.980;23.748;2023-11-21T09:45:10;2.22;;;1.98;;
18302;SDS011;9277;37.980;23.748;2023-11-21T09:47:39;8.35;;;3.10;;
18302;SDS011;9277;37.980;23.748;2023-11-21T09:50:06;9.45;;;3.60;;
18302;SDS011;9277;37.980;23.748;2023-11-21T09:52:38;5.72;;;2.80;;
18302;SDS011;9277;37.980;23.748;2023-11-21T09:55:08;5.13;;;3.17;;
18302;SDS011;9277;37.980;23.748;2023-11-21T09:57:38;7.07;;;4.00;;
18302;SDS011;9277;37.980;23.748;2023-11-21T10:00:06;11.40;;;4.55;;
18302;SDS011;9277;37.980;23.748;2023-11-21T10:02:37;3.83;;;2.97;;
18302;SDS011;9277;37.980;23.748;2023-11-21T10:05:06;6.30;;;2.72;;
18302;SDS011;9277;37.980;23.748;2023-11-21T10:07:36;7.25;;;3.03;;
18302;SDS011;9277;37.980;23.748;2023-11-21T10:10:03;4.72;;;3.35;;
18302;SDS011;9277;37.980;23.748;2023-11-21T10:12:31;4.80;;;3.40;;
18302;SDS011;9277;37.980;23.748;2023-11-21T10:14:59;6.43;;;3.88;;
18302;SDS011;9277;37.980;23.748;2023-11-21T10:17:26;7.43;;;3.50;;
18302;SDS011;9277;37.980;23.748;2023-11-21T10:19:56;7.95;;;3.78;;
18302;SDS011;9277;37.980;23.748;2023-11-21T10:22:24;6.60;;;3.75;;
18302;SDS011;9277;37.980;23.748;2023-11-21T10:24:52;4.35;;;3.35;;
18302;SDS011;9277;37.980;23.748;2023-11-21T10:27:19;7.68;;;4.22;;
18302;SDS011;9277;37.980;23.748;2023-11-21T10:29:46;7.55;;;4.15;;
18302;SDS011;9277;37.980;23.748;2023-11-21T10:32:13;8.15;;;4.22;;
18302;SDS011;9277;37.980;23.748;2023-11-21T10:34:39;11.70;;;2.95;;
18302;SDS011;9277;37.980;23.748;2023-11-21T10:37:10;3.40;;;2.88;;
18302;SDS011;9277;37.980;23.748;2023-11-21T10:39:38;4.38;;;3.22;;
18302;SDS011;9277;37.980;23.748;2023-11-21T10:42:07;4.90;;;2.83;;
18302;SDS011;9277;37.980;23.748;2023-11-21T10:44:34;7.68;;;3.08;;
18302;SDS011;9277;37.980;23.748;2023-11-21T10:47:01;7.10;;;2.97;;
18302;SDS011;9277;37.980;23.748;2023-11-21T10:49:28;5.72;;;3.22;;
18302;SDS011;9277;37.980;23.748;2023-11-21T10:51:55;3.72;;;2.95;;
18302;SDS011;9277;37.980;23.748;2023-11-21T10:54:24;6.47;;;3.92;;
18302;SDS011;9277;37.980;23.748;2023-11-21T10:56:53;5.15;;;2.92;;
18302;SDS011;9277;37.980;23.748;2023-11-21T10:59:22;5.60;;;3.20;;
18302;SDS011;9277;37.980;23.748;2023-11-21T11:01:50;6.18;;;3.97;;
18302;SDS011;9277;37.980;23.748;2023-11-21T11:04:18;5.95;;;3.50;;
18302;SDS011;9277;37.980;23.748;2023-11-21T11:06:45;6.70;;;3.70;;
18302;SDS011;9277;37.980;23.748;2023-11-21T11:09:15;6.20;;;3.63;;
18302;SDS011;9277;37.980;23.748;2023-11-21T11:11:43;4.38;;;3.08;;
18302;SDS011;9277;37.980;23.748;2023-11-21T11:14:11;12.55;;;3.65;;
18302;SDS011;9277;37.980;23.748;2023-11-21T11:16:40;6.63;;;3.58;;
18302;SDS011;9277;37.980;23.748;2023-11-21T11:19:08;6.15;;;4.25;;
18302;SDS011;9277;37.980;23.748;2023-11-21T11:21:39;11.70;;;4.72;;
18302;SDS011;9277;37.980;23.748;2023-11-21T11:24:25;7.90;;;3.70;;
18302;SDS011;9277;37.980;23.748;2023-11-21T11:26:55;8.98;;;4.20;;
18302;SDS011;9277;37.980;23.748;2023-11-21T11:29:24;14.55;;;4.20;;
18302;SDS011;9277;37.980;23.748;2023-11-21T11:31:58;11.27;;;4.28;;
18302;SDS011;9277;37.980;23.748;2023-11-21T11:34:30;6.95;;;4.13;;
18302;SDS011;9277;37.980;23.748;2023-11-21T11:37:00;14.30;;;4.22;;
18302;SDS011;9277;37.980;23.748;2023-11-21T11:39:28;7.95;;;4.00;;
18302;SDS011;9277;37.980;23.748;2023-11-21T11:41:58;9.38;;;4.20;;
18302;SDS011;9277;37.980;23.748;2023-11-21T11:47:14;7.75;;;4.15;;
18302;SDS011;9277;37.980;23.748;2023-11-21T11:49:54;7.93;;;3.95;;
18302;SDS011;9277;37.980;23.748;2023-11-21T11:52:32;9.65;;;4.40;;
18302;SDS011;9277;37.980;23.748;2023-11-21T11:54:59;10.75;;;4.15;;
18302;SDS011;9277;37.980;23.748;2023-11-21T11:57:26;6.63;;;3.97;;
18302;SDS011;9277;37.980;23.748;2023-11-21T12:02:52;9.55;;;3.95;;
18302;SDS011;9277;37.980;23.748;2023-11-21T12:05:19;8.18;;;4.00;;
18302;SDS011;9277;37.980;23.748;2023-11-21T12:07:46;7.32;;;3.20;;
18302;SDS011;9277;37.980;23.748;2023-11-21T12:10:16;7.95;;;3.53;;
18302;SDS011;9277;37.980;23.748;2023-11-21T12:12:45;7.63;;;3.65;;
18302;SDS011;9277;37.980;23.748;2023-11-21T12:15:12;4.30;;;3.00;;
18302;SDS011;9277;37.980;23.748;2023-11-21T12:17:39;7.85;;;3.53;;
18302;SDS011;9277;37.980;23.748;2023-11-21T12:20:08;6.05;;;3.30;;
18302;SDS011;9277;37.980;23.748;2023-11-21T12:22:41;5.85;;;3.10;;
18302;SDS011;9277;37.980;23.748;2023-11-21T12:25:08;13.80;;;3.88;;
18302;SDS011;9277;37.980;23.748;2023-11-21T12:27:34;11.15;;;3.95;;
18302;SDS011;9277;37.980;23.748;2023-11-21T12:30:02;4.15;;;3.08;;
18302;SDS011;9277;37.980;23.748;2023-11-21T12:32:30;6.80;;;2.88;;
18302;SDS011;9277;37.980;23.748;2023-11-21T12:34:57;9.60;;;2.75;;
18302;SDS011;9277;37.980;23.748;2023-11-21T12:37:25;8.23;;;2.90;;
18302;SDS011;9277;37.980;23.748;2023-11-21T12:39:52;8.18;;;2.67;;
18302;SDS011;9277;37.980;23.748;2023-11-21T12:42:23;4.28;;;2.22;;
18302;SDS011;9277;37.980;23.748;2023-11-21T12:47:33;3.03;;;2.20;;
18302;SDS011;9277;37.980;23.748;2023-11-21T12:50:01;2.65;;;2.25;;
18302;SDS011;9277;37.980;23.748;2023-11-21T12:52:33;3.28;;;2.17;;
18302;SDS011;9277;37.980;23.748;2023-11-21T12:55:00;4.10;;;2.47;;
18302;SDS011;9277;37.980;23.748;2023-11-21T12:57:27;4.20;;;2.58;;
18302;SDS011;9277;37.980;23.748;2023-11-21T12:59:56;3.83;;;1.92;;
18302;SDS011;9277;37.980;23.748;2023-11-21T13:02:25;4.00;;;2.45;;
18302;SDS011;9277;37.980;23.748;2023-11-21T13:04:52;4.18;;;2.38;;
18302;SDS011;9277;37.980;23.748;2023-11-21T13:07:19;5.75;;;2.80;;
18302;SDS011;9277;37.980;23.748;2023-11-21T13:09:49;3.67;;;2.47;;
18302;SDS011;9277;37.980;23.748;2023-11-21T13:12:23;5.00;;;2.50;;
18302;SDS011;9277;37.980;23.748;2023-11-21T13:14:50;6.30;;;2.70;;
18302;SDS011;9277;37.980;23.748;2023-11-21T13:17:17;3.72;;;2.83;;
18302;SDS011;9277;37.980;23.748;2023-11-21T13:19:44;3.30;;;2.33;;
18302;SDS011;9277;37.980;23.748;2023-11-21T13:22:11;4.68;;;2.42;;
18302;SDS011;9277;37.980;23.748;2023-11-21T13:24:38;2.50;;;2.13;;
18302;SDS011;9277;37.980;23.748;2023-11-21T13:27:06;2.33;;;1.92;;
18302;SDS011;9277;37.980;23.748;2023-11-21T13:29:33;2.50;;;2.30;;
18302;SDS011;9277;37.980;23.748;2023-11-21T13:32:00;2.50;;;2.28;;
18302;SDS011;9277;37.980;23.748;2023-11-21T13:34:29;3.25;;;2.22;;
18302;SDS011;9277;37.980;23.748;2023-11-21T13:36:57;5.03;;;2.33;;
18302;SDS011;9277;37.980;23.748;2023-11-21T13:39:26;3.13;;;2.10;;
18302;SDS011;9277;37.980;23.748;2023-11-21T13:41:54;4.53;;;2.25;;
18302;SDS011;9277;37.980;23.748;2023-11-21T13:44:23;4.32;;;2.33;;
18302;SDS011;9277;37.980;23.748;2023-11-21T13:47:03;2.70;;;2.25;;
18302;SDS011;9277;37.980;23.748;2023-11-21T13:49:31;4.47;;;2.50;;
18302;SDS011;9277;37.980;23.748;2023-11-21T13:52:01;2.88;;;2.50;;
18302;SDS011;9277;37.980;23.748;2023-11-21T13:54:28;4.28;;;2.33;;
18302;SDS011;9277;37.980;23.748;2023-11-21T13:56:56;4.72;;;1.73;;
18302;SDS011;9277;37.980;23.748;2023-11-21T13:59:26;3.88;;;2.72;;
18302;SDS011;9277;37.980;23.748;2023-11-21T14:01:55;3.22;;;2.05;;
18302;SDS011;9277;37.980;23.748;2023-11-21T14:04:23;3.65;;;2.20;;
18302;SDS011;9277;37.980;23.748;2023-11-21T14:07:12;7.93;;;2.33;;
18302;SDS011;9277;37.980;23.748;2023-11-21T14:09:47;6.70;;;2.55;;
18302;SDS011;9277;37.980;23.748;2023-11-21T14:12:15;4.43;;;1.90;;
18302;SDS011;9277;37.980;23.748;2023-11-21T14:14:43;5.57;;;2.25;;
18302;SDS011;9277;37.980;23.748;2023-11-21T14:17:10;7.05;;;2.75;;
18302;SDS011;9277;37.980;23.748;2023-11-21T14:19:37;3.28;;;2.38;;
18302;SDS011;9277;37.980;23.748;2023-11-21T14:22:08;4.05;;;2.75;;
18302;SDS011;9277;37.980;23.748;2023-11-21T14:24:35;5.43;;;2.80;;
18302;SDS011;9277;37.980;23.748;2023-11-21T14:27:02;5.68;;;3.63;;
18302;SDS011;9277;37.980;23.748;2023-11-21T14:29:29;7.50;;;3.88;;
18302;SDS011;9277;37.980;23.748;2023-11-21T14:31:58;8.23;;;2.72;;
18302;SDS011;9277;37.980;23.748;2023-11-21T14:34:24;3.22;;;2.53;;
18302;SDS011;9277;37.980;23.748;2023-11-21T14:36:51;5.03;;;2.70;;
18302;SDS011;9277;37.980;23.748;2023-11-21T14:39:18;5.38;;;2.60;;
18302;SDS011;9277;37.980;23.748;2023-11-21T14:41:48;5.93;;;2.50;;
18302;SDS011;9277;37.980;23.748;2023-11-21T14:44:15;5.07;;;2.13;;
18302;SDS011;9277;37.980;23.748;2023-11-21T14:46:42;2.45;;;2.13;;
18302;SDS011;9277;37.980;23.748;2023-11-21T14:49:13;4.95;;;2.55;;
18302;SDS011;9277;37.980;23.748;2023-11-21T14:51:46;2.35;;;2.15;;
18302;SDS011;9277;37.980;23.748;2023-11-21T14:54:25;2.92;;;2.53;;
18302;SDS011;9277;37.980;23.748;2023-11-21T14:57:05;5.65;;;2.67;;